sensor_id;sensor_type;location;lat;lon;timestamp;temperature;humidity
24468;DHT22;12634;50.852;5.676;2024-01-30T00:00:17;9.60;99.90
24468;DHT22;12634;50.852;5.676;2024-01-30T00:02:44;9.50;99.90
24468;DHT22;12634;50.852;5.676;2024-01-30T00:05:12;9.60;99.90
24468;DHT22;12634;50.852;5.676;2024-01-30T00:07:39;9.60;99.90
24468;DHT22;12634;50.852;5.676;2024-01-30T00:10:08;9.60;99.90
24468;DHT22;12634;50.852;5.676;2024-01-30T00:12:35;9.60;99.90
24468;DHT22;12634;50.852;5.676;2024-01-30T00:15:03;9.50;99.90
24468;DHT22;12634;50.852;5.676;2024-01-30T00:17:30;9.50;99.90
24468;DHT22;12634;50.852;5.676;2024-01-30T00:19:57;9.60;99.90
24468;DHT22;12634;50.852;5.676;2024-01-30T00:22:24;9.60;99.90
24468;DHT22;12634;50.852;5.676;2024-01-30T00:24:52;9.60;99.90
24468;DHT22;12634;50.852;5.676;2024-01-30T00:27:20;9.60;99.90
24468;DHT22;12634;50.852;5.676;2024-01-30T00:29:47;9.50;99.90
24468;DHT22;12634;50.852;5.676;2024-01-30T00:32:14;9.70;99.90
24468;DHT22;12634;50.852;5.676;2024-01-30T00:34:42;9.60;99.90
24468;DHT22;12634;50.852;5.676;2024-01-30T00:37:09;9.60;99.90
24468;DHT22;12634;50.852;5.676;2024-01-30T00:39:36;9.60;99.90
24468;DHT22;12634;50.852;5.676;2024-01-30T00:42:03;9.70;99.90
24468;DHT22;12634;50.852;5.676;2024-01-30T00:44:35;9.70;99.90
24468;DHT22;12634;50.852;5.676;2024-01-30T00:47:03;9.70;99.90
24468;DHT22;12634;50.852;5.676;2024-01-30T00:49:30;9.70;99.90
24468;DHT22;12634;50.852;5.676;2024-01-30T00:51:57;9.70;99.90
24468;DHT22;12634;50.852;5.676;2024-01-30T00:54:24;9.60;99.90
24468;DHT22;12634;50.852;5.676;2024-01-30T00:56:51;9.60;99.90
24468;DHT22;12634;50.852;5.676;2024-01-30T00:59:18;9.50;99.90
24468;DHT22;12634;50.852;5.676;2024-01-30T01:01:47;9.60;99.90
24468;DHT22;12634;50.852;5.676;2024-01-30T01:04:14;9.80;99.90
24468;DHT22;12634;50.852;5.676;2024-01-30T01:06:41;9.80;99.90
24468;DHT22;12634;50.852;5.676;2024-01-30T01:09:10;9.70;99.90
24468;DHT22;12634;50.852;5.676;2024-01-30T01:11:37;9.70;99.90
24468;DHT22;12634;50.852;5.676;2024-01-30T01:14:04;9.70;99.90
24468;DHT22;12634;50.852;5.676;2024-01-30T01:16:31;9.70;99.90
24468;DHT22;12634;50.852;5.676;2024-01-30T01:19:00;9.70;99.90
24468;DHT22;12634;50.852;5.676;2024-01-30T01:21:27;9.80;99.90
24468;DHT22;12634;50.852;5.676;2024-01-30T01:23:54;9.80;99.90
24468;DHT22;12634;50.852;5.676;2024-01-30T01:26:21;9.60;99.90
24468;DHT22;12634;50.852;5.676;2024-01-30T01:28:49;9.80;99.90
24468;DHT22;12634;50.852;5.676;2024-01-30T01:31:16;9.70;99.90
24468;DHT22;12634;50.852;5.676;2024-01-30T01:33:43;9.70;99.90
24468;DHT22;12634;50.852;5.676;2024-01-30T01:36:13;9.80;99.90
24468;DHT22;12634;50.852;5.676;2024-01-30T01:38:40;9.90;99.90
24468;DHT22;12634;50.852;5.676;2024-01-30T01:41:08;9.90;99.90
24468;DHT22;12634;50.852;5.676;2024-01-30T01:43:35;9.90;99.90
24468;DHT22;12634;50.852;5.676;2024-01-30T01:46:03;10.00;99.90
24468;DHT22;12634;50.852;5.676;2024-01-30T01:48:31;9.90;99.90
24468;DHT22;12634;50.852;5.676;2024-01-30T01:50:58;10.00;99.90
24468;DHT22;12634;50.852;5.676;2024-01-30T01:53:27;10.00;99.90
24468;DHT22;12634;50.852;5.676;2024-01-30T01:55:55;9.90;99.90
24468;DHT22;12634;50.852;5.676;2024-01-30T01:58:22;10.00;99.90
24468;DHT22;12634;50.852;5.676;2024-01-30T02:00:54;10.10;99.90
24468;DHT22;12634;50.852;5.676;2024-01-30T02:03:22;10.10;99.90
24468;DHT22;12634;50.852;5.676;2024-01-30T02:05:50;10.20;99.90
24468;DHT22;12634;50.852;5.676;2024-01-30T02:08:17;10.10;99.90
24468;DHT22;12634;50.852;5.676;2024-01-30T02:10:46;10.10;99.90
24468;DHT22;12634;50.852;5.676;2024-01-30T02:13:13;10.10;99.90
24468;DHT22;12634;50.852;5.676;2024-01-30T02:15:40;10.10;99.90
24468;DHT22;12634;50.852;5.676;2024-01-30T02:18:07;10.10;99.90
24468;DHT22;12634;50.852;5.676;2024-01-30T02:20:35;10.10;99.90
24468;DHT22;12634;50.852;5.676;2024-01-30T02:23:04;10.20;99.90
24468;DHT22;12634;50.852;5.676;2024-01-30T02:25:33;10.30;99.90
24468;DHT22;12634;50.852;5.676;2024-01-30T02:28:00;10.20;99.90
24468;DHT22;12634;50.852;5.676;2024-01-30T02:30:27;10.20;99.90
24468;DHT22;12634;50.852;5.676;2024-01-30T02:32:54;10.30;99.90
24468;DHT22;12634;50.852;5.676;2024-01-30T02:35:21;10.30;99.90
24468;DHT22;12634;50.852;5.676;2024-01-30T02:37:48;10.30;99.90
24468;DHT22;12634;50.852;5.676;2024-01-30T02:40:17;10.30;99.90
24468;DHT22;12634;50.852;5.676;2024-01-30T02:42:44;10.40;99.90
24468;DHT22;12634;50.852;5.676;2024-01-30T02:45:12;10.40;99.90
24468;DHT22;12634;50.852;5.676;2024-01-30T02:47:40;10.30;99.90
24468;DHT22;12634;50.852;5.676;2024-01-30T02:50:08;10.40;99.90
24468;DHT22;12634;50.852;5.676;2024-01-30T02:52:35;10.30;99.90
24468;DHT22;12634;50.852;5.676;2024-01-30T02:55:03;10.40;99.90
24468;DHT22;12634;50.852;5.676;2024-01-30T02:57:31;10.40;99.90
24468;DHT22;12634;50.852;5.676;2024-01-30T02:59:58;10.20;99.90
24468;DHT22;12634;50.852;5.676;2024-01-30T03:02:25;10.40;99.90
24468;DHT22;12634;50.852;5.676;2024-01-30T03:04:53;10.30;99.90
24468;DHT22;12634;50.852;5.676;2024-01-30T03:07:20;10.20;99.90
24468;DHT22;12634;50.852;5.676;2024-01-30T03:09:47;10.20;99.90
24468;DHT22;12634;50.852;5.676;2024-01-30T03:12:14;10.30;99.90
24468;DHT22;12634;50.852;5.676;2024-01-30T03:14:42;10.30;99.90
24468;DHT22;12634;50.852;5.676;2024-01-30T03:17:10;10.30;99.90
24468;DHT22;12634;50.852;5.676;2024-01-30T03:19:37;10.20;99.90
24468;DHT22;12634;50.852;5.676;2024-01-30T03:22:04;10.40;99.90
24468;DHT22;12634;50.852;5.676;2024-01-30T03:24:31;10.50;99.90
24468;DHT22;12634;50.852;5.676;2024-01-30T03:26:58;10.30;99.90
24468;DHT22;12634;50.852;5.676;2024-01-30T03:29:25;10.40;99.90
24468;DHT22;12634;50.852;5.676;2024-01-30T03:31:54;10.40;99.90
24468;DHT22;12634;50.852;5.676;2024-01-30T03:34:21;10.30;99.90
24468;DHT22;12634;50.852;5.676;2024-01-30T03:36:48;10.40;99.90
24468;DHT22;12634;50.852;5.676;2024-01-30T03:39:15;10.50;99.90
24468;DHT22;12634;50.852;5.676;2024-01-30T03:41:42;10.30;99.90
24468;DHT22;12634;50.852;5.676;2024-01-30T03:44:10;10.60;99.90
24468;DHT22;12634;50.852;5.676;2024-01-30T03:46:37;10.60;99.90
24468;DHT22;12634;50.852;5.676;2024-01-30T03:49:05;10.70;99.90
24468;DHT22;12634;50.852;5.676;2024-01-30T03:51:33;10.60;99.90
24468;DHT22;12634;50.852;5.676;2024-01-30T03:54:00;10.50;99.90
24468;DHT22;12634;50.852;5.676;2024-01-30T03:56:28;10.50;99.90
24468;DHT22;12634;50.852;5.676;2024-01-30T03:58:55;10.50;99.90
24468;DHT22;12634;50.852;5.676;2024-01-30T04:01:22;10.60;99.90
24468;DHT22;12634;50.852;5.676;2024-01-30T04:03:49;10.60;99.90
24468;DHT22;12634;50.852;5.676;2024-01-30T04:06:18;10.40;99.90
24468;DHT22;12634;50.852;5.676;2024-01-30T04:08:45;10.60;99.90
24468;DHT22;12634;50.852;5.676;2024-01-30T04:11:12;10.60;99.90
24468;DHT22;12634;50.852;5.676;2024-01-30T04:13:39;10.70;99.90
24468;DHT22;12634;50.852;5.676;2024-01-30T04:16:18;10.70;99.90
24468;DHT22;12634;50.852;5.676;2024-01-30T04:18:45;10.90;99.90
24468;DHT22;12634;50.852;5.676;2024-01-30T04:21:12;10.80;99.90
24468;DHT22;12634;50.852;5.676;2024-01-30T04:23:41;10.90;99.90
24468;DHT22;12634;50.852;5.676;2024-01-30T04:26:08;10.90;99.90
24468;DHT22;12634;50.852;5.676;2024-01-30T04:28:36;10.80;99.90
24468;DHT22;12634;50.852;5.676;2024-01-30T04:31:03;10.80;99.90
24468;DHT22;12634;50.852;5.676;2024-01-30T04:33:30;10.70;99.90
24468;DHT22;12634;50.852;5.676;2024-01-30T04:35:58;10.70;99.90
24468;DHT22;12634;50.852;5.676;2024-01-30T04:38:25;10.60;99.90
24468;DHT22;12634;50.852;5.676;2024-01-30T04:40:53;10.70;99.90
24468;DHT22;12634;50.852;5.676;2024-01-30T04:43:20;10.70;99.90
24468;DHT22;12634;50.852;5.676;2024-01-30T04:45:48;10.70;99.90
24468;DHT22;12634;50.852;5.676;2024-01-30T04:48:15;10.70;99.90
24468;DHT22;12634;50.852;5.676;2024-01-30T04:50:43;10.60;99.90
24468;DHT22;12634;50.852;5.676;2024-01-30T04:53:10;10.70;99.90
24468;DHT22;12634;50.852;5.676;2024-01-30T04:55:37;10.60;99.90
24468;DHT22;12634;50.852;5.676;2024-01-30T04:58:05;10.60;99.90
24468;DHT22;12634;50.852;5.676;2024-01-30T05:00:33;10.70;99.90
24468;DHT22;12634;50.852;5.676;2024-01-30T05:03:01;10.80;99.90
24468;DHT22;12634;50.852;5.676;2024-01-30T05:05:28;10.70;99.90
24468;DHT22;12634;50.852;5.676;2024-01-30T05:07:55;10.90;99.90
24468;DHT22;12634;50.852;5.676;2024-01-30T05:10:22;10.80;99.90
24468;DHT22;12634;50.852;5.676;2024-01-30T05:12:49;10.80;99.90
24468;DHT22;12634;50.852;5.676;2024-01-30T05:15:18;10.70;99.90
24468;DHT22;12634;50.852;5.676;2024-01-30T05:17:45;10.80;99.90
24468;DHT22;12634;50.852;5.676;2024-01-30T05:20:13;10.70;99.90
24468;DHT22;12634;50.852;5.676;2024-01-30T05:22:40;10.60;99.90
24468;DHT22;12634;50.852;5.676;2024-01-30T05:25:10;10.70;99.90
24468;DHT22;12634;50.852;5.676;2024-01-30T05:27:38;10.60;99.90
24468;DHT22;12634;50.852;5.676;2024-01-30T05:30:06;10.60;99.90
24468;DHT22;12634;50.852;5.676;2024-01-30T05:32:35;10.60;99.90
24468;DHT22;12634;50.852;5.676;2024-01-30T05:35:03;10.60;99.90
24468;DHT22;12634;50.852;5.676;2024-01-30T05:37:31;10.50;99.90
24468;DHT22;12634;50.852;5.676;2024-01-30T05:39:58;10.60;99.90
24468;DHT22;12634;50.852;5.676;2024-01-30T05:42:26;10.60;99.90
24468;DHT22;12634;50.852;5.676;2024-01-30T05:44:53;10.60;99.90
24468;DHT22;12634;50.852;5.676;2024-01-30T05:47:20;10.60;99.90
24468;DHT22;12634;50.852;5.676;2024-01-30T05:49:49;10.60;99.90
24468;DHT22;12634;50.852;5.676;2024-01-30T05:52:16;10.50;99.90
24468;DHT22;12634;50.852;5.676;2024-01-30T05:54:44;10.60;99.90
24468;DHT22;12634;50.852;5.676;2024-01-30T05:57:11;10.60;99.90
24468;DHT22;12634;50.852;5.676;2024-01-30T05:59:39;10.60;99.90
24468;DHT22;12634;50.852;5.676;2024-01-30T06:02:06;10.70;99.90
24468;DHT22;12634;50.852;5.676;2024-01-30T06:04:33;10.70;99.90
24468;DHT22;12634;50.852;5.676;2024-01-30T06:07:01;10.60;99.90
24468;DHT22;12634;50.852;5.676;2024-01-30T06:09:30;10.60;99.90
24468;DHT22;12634;50.852;5.676;2024-01-30T06:11:57;10.60;99.90
24468;DHT22;12634;50.852;5.676;2024-01-30T06:14:24;10.60;99.90
24468;DHT22;12634;50.852;5.676;2024-01-30T06:16:51;10.70;99.90
24468;DHT22;12634;50.852;5.676;2024-01-30T06:19:18;10.70;99.90
24468;DHT22;12634;50.852;5.676;2024-01-30T06:21:45;10.80;99.90
24468;DHT22;12634;50.852;5.676;2024-01-30T06:24:14;10.70;99.90
24468;DHT22;12634;50.852;5.676;2024-01-30T06:26:41;10.80;99.90
24468;DHT22;12634;50.852;5.676;2024-01-30T06:29:08;10.80;99.90
24468;DHT22;12634;50.852;5.676;2024-01-30T06:31:40;10.70;99.90
24468;DHT22;12634;50.852;5.676;2024-01-30T06:34:08;10.60;99.90
24468;DHT22;12634;50.852;5.676;2024-01-30T06:36:35;10.70;99.90
24468;DHT22;12634;50.852;5.676;2024-01-30T06:39:03;10.70;99.90
24468;DHT22;12634;50.852;5.676;2024-01-30T06:41:32;10.70;99.90
24468;DHT22;12634;50.852;5.676;2024-01-30T06:44:01;10.80;99.90
24468;DHT22;12634;50.852;5.676;2024-01-30T06:46:28;10.70;99.90
24468;DHT22;12634;50.852;5.676;2024-01-30T06:48:55;10.70;99.90
24468;DHT22;12634;50.852;5.676;2024-01-30T06:51:23;10.90;99.90
24468;DHT22;12634;50.852;5.676;2024-01-30T06:53:50;11.00;99.90
24468;DHT22;12634;50.852;5.676;2024-01-30T06:56:17;11.10;99.90
24468;DHT22;12634;50.852;5.676;2024-01-30T06:58:48;11.10;99.90
24468;DHT22;12634;50.852;5.676;2024-01-30T07:01:15;11.20;99.90
24468;DHT22;12634;50.852;5.676;2024-01-30T07:03:43;11.10;99.90
24468;DHT22;12634;50.852;5.676;2024-01-30T07:06:10;11.10;99.90
24468;DHT22;12634;50.852;5.676;2024-01-30T07:08:37;11.20;99.90
24468;DHT22;12634;50.852;5.676;2024-01-30T07:11:05;11.20;99.90
24468;DHT22;12634;50.852;5.676;2024-01-30T07:13:32;11.20;99.90
24468;DHT22;12634;50.852;5.676;2024-01-30T07:16:01;11.30;99.90
24468;DHT22;12634;50.852;5.676;2024-01-30T07:18:28;11.30;99.90
24468;DHT22;12634;50.852;5.676;2024-01-30T07:20:55;11.10;99.90
24468;DHT22;12634;50.852;5.676;2024-01-30T07:23:22;11.20;99.90
24468;DHT22;12634;50.852;5.676;2024-01-30T07:25:50;11.20;99.90
24468;DHT22;12634;50.852;5.676;2024-01-30T07:28:16;11.20;99.90
24468;DHT22;12634;50.852;5.676;2024-01-30T07:30:43;11.20;99.90
24468;DHT22;12634;50.852;5.676;2024-01-30T07:33:12;11.10;99.90
24468;DHT22;12634;50.852;5.676;2024-01-30T07:35:39;11.10;99.90
24468;DHT22;12634;50.852;5.676;2024-01-30T07:38:06;11.00;99.90
24468;DHT22;12634;50.852;5.676;2024-01-30T07:40:33;11.00;99.90
24468;DHT22;12634;50.852;5.676;2024-01-30T07:43:01;11.10;99.90
24468;DHT22;12634;50.852;5.676;2024-01-30T07:45:29;11.00;99.90
24468;DHT22;12634;50.852;5.676;2024-01-30T07:47:58;11.00;99.90
24468;DHT22;12634;50.852;5.676;2024-01-30T07:50:27;10.90;99.90
24468;DHT22;12634;50.852;5.676;2024-01-30T07:52:56;10.80;99.90
24468;DHT22;12634;50.852;5.676;2024-01-30T07:55:23;10.90;99.90
24468;DHT22;12634;50.852;5.676;2024-01-30T07:57:53;10.90;99.90
24468;DHT22;12634;50.852;5.676;2024-01-30T08:00:21;10.90;99.90
24468;DHT22;12634;50.852;5.676;2024-01-30T08:02:54;10.80;99.90
24468;DHT22;12634;50.852;5.676;2024-01-30T08:05:22;10.90;99.90
24468;DHT22;12634;50.852;5.676;2024-01-30T08:07:51;10.90;99.90
24468;DHT22;12634;50.852;5.676;2024-01-30T08:10:18;10.90;99.90
24468;DHT22;12634;50.852;5.676;2024-01-30T08:12:45;10.90;99.90
24468;DHT22;12634;50.852;5.676;2024-01-30T08:15:12;10.80;99.90
24468;DHT22;12634;50.852;5.676;2024-01-30T08:17:40;10.80;99.90
24468;DHT22;12634;50.852;5.676;2024-01-30T08:20:07;10.80;99.90
24468;DHT22;12634;50.852;5.676;2024-01-30T08:22:38;10.80;99.90
24468;DHT22;12634;50.852;5.676;2024-01-30T08:25:08;10.90;99.90
24468;DHT22;12634;50.852;5.676;2024-01-30T08:27:35;11.00;99.90
24468;DHT22;12634;50.852;5.676;2024-01-30T08:30:05;11.00;99.90
24468;DHT22;12634;50.852;5.676;2024-01-30T08:32:33;11.10;99.90
24468;DHT22;12634;50.852;5.676;2024-01-30T08:35:00;11.10;99.90
24468;DHT22;12634;50.852;5.676;2024-01-30T08:37:29;11.10;99.90
24468;DHT22;12634;50.852;5.676;2024-01-30T08:39:57;11.20;99.90
24468;DHT22;12634;50.852;5.676;2024-01-30T08:42:25;11.20;99.90
24468;DHT22;12634;50.852;5.676;2024-01-30T08:44:53;11.30;99.90
24468;DHT22;12634;50.852;5.676;2024-01-30T08:47:21;11.30;99.90
24468;DHT22;12634;50.852;5.676;2024-01-30T08:49:47;11.40;99.90
24468;DHT22;12634;50.852;5.676;2024-01-30T08:52:14;11.40;99.90
24468;DHT22;12634;50.852;5.676;2024-01-30T08:54:42;11.40;99.90
24468;DHT22;12634;50.852;5.676;2024-01-30T08:57:09;11.40;99.90
24468;DHT22;12634;50.852;5.676;2024-01-30T08:59:37;11.40;99.90
24468;DHT22;12634;50.852;5.676;2024-01-30T09:02:05;11.40;99.90
24468;DHT22;12634;50.852;5.676;2024-01-30T09:04:32;11.40;99.90
24468;DHT22;12634;50.852;5.676;2024-01-30T09:07:00;11.40;99.90
24468;DHT22;12634;50.852;5.676;2024-01-30T09:09:27;11.50;99.90
24468;DHT22;12634;50.852;5.676;2024-01-30T09:11:54;11.50;99.90
24468;DHT22;12634;50.852;5.676;2024-01-30T09:14:21;11.50;99.90
24468;DHT22;12634;50.852;5.676;2024-01-30T09:16:50;11.50;99.90
24468;DHT22;12634;50.852;5.676;2024-01-30T09:19:17;11.60;99.90
24468;DHT22;12634;50.852;5.676;2024-01-30T09:21:44;11.50;99.90
24468;DHT22;12634;50.852;5.676;2024-01-30T09:24:11;11.50;99.90
24468;DHT22;12634;50.852;5.676;2024-01-30T09:26:38;11.60;99.90
24468;DHT22;12634;50.852;5.676;2024-01-30T09:29:05;11.60;99.90
24468;DHT22;12634;50.852;5.676;2024-01-30T09:31:32;11.60;99.90
24468;DHT22;12634;50.852;5.676;2024-01-30T09:34:01;11.60;99.90
24468;DHT22;12634;50.852;5.676;2024-01-30T09:36:28;11.70;99.90
24468;DHT22;12634;50.852;5.676;2024-01-30T09:38:55;11.70;99.90
24468;DHT22;12634;50.852;5.676;2024-01-30T09:41:24;11.70;99.90
24468;DHT22;12634;50.852;5.676;2024-01-30T09:43:51;11.80;99.90
24468;DHT22;12634;50.852;5.676;2024-01-30T09:46:21;11.80;99.90
24468;DHT22;12634;50.852;5.676;2024-01-30T09:48:50;11.90;99.90
24468;DHT22;12634;50.852;5.676;2024-01-30T09:51:19;11.90;99.90
24468;DHT22;12634;50.852;5.676;2024-01-30T09:53:48;11.80;99.90
24468;DHT22;12634;50.852;5.676;2024-01-30T09:56:16;11.90;99.90
24468;DHT22;12634;50.852;5.676;2024-01-30T09:58:44;11.80;99.90
24468;DHT22;12634;50.852;5.676;2024-01-30T10:01:12;11.80;99.90
24468;DHT22;12634;50.852;5.676;2024-01-30T10:03:39;11.80;99.90
24468;DHT22;12634;50.852;5.676;2024-01-30T10:06:07;11.80;99.90
24468;DHT22;12634;50.852;5.676;2024-01-30T10:08:36;11.80;99.90
24468;DHT22;12634;50.852;5.676;2024-01-30T10:11:04;11.70;99.90
24468;DHT22;12634;50.852;5.676;2024-01-30T10:13:32;11.70;99.90
24468;DHT22;12634;50.852;5.676;2024-01-30T10:15:59;11.70;99.90
24468;DHT22;12634;50.852;5.676;2024-01-30T10:18:29;11.70;99.90
24468;DHT22;12634;50.852;5.676;2024-01-30T10:20:56;11.70;99.90
24468;DHT22;12634;50.852;5.676;2024-01-30T10:23:23;11.70;99.90
24468;DHT22;12634;50.852;5.676;2024-01-30T10:25:52;11.70;99.90
24468;DHT22;12634;50.852;5.676;2024-01-30T10:28:19;11.70;99.90
24468;DHT22;12634;50.852;5.676;2024-01-30T10:30:57;11.70;99.90
24468;DHT22;12634;50.852;5.676;2024-01-30T10:33:25;11.80;99.90
24468;DHT22;12634;50.852;5.676;2024-01-30T10:35:54;11.80;99.90
24468;DHT22;12634;50.852;5.676;2024-01-30T10:38:24;11.80;99.90
24468;DHT22;12634;50.852;5.676;2024-01-30T10:40:56;11.80;99.90
24468;DHT22;12634;50.852;5.676;2024-01-30T10:43:26;11.80;99.90
24468;DHT22;12634;50.852;5.676;2024-01-30T10:45:56;11.80;99.90
24468;DHT22;12634;50.852;5.676;2024-01-30T10:48:27;11.90;99.90
24468;DHT22;12634;50.852;5.676;2024-01-30T10:50:59;11.90;99.90
24468;DHT22;12634;50.852;5.676;2024-01-30T10:53:31;11.90;99.90
24468;DHT22;12634;50.852;5.676;2024-01-30T10:56:01;12.00;99.90
24468;DHT22;12634;50.852;5.676;2024-01-30T10:58:29;12.10;99.90
24468;DHT22;12634;50.852;5.676;2024-01-30T11:00:57;12.10;99.90
24468;DHT22;12634;50.852;5.676;2024-01-30T11:03:25;12.10;99.90
24468;DHT22;12634;50.852;5.676;2024-01-30T11:05:52;12.20;99.90
24468;DHT22;12634;50.852;5.676;2024-01-30T11:08:25;12.10;99.90
24468;DHT22;12634;50.852;5.676;2024-01-30T11:10:56;12.00;99.90
24468;DHT22;12634;50.852;5.676;2024-01-30T11:13:29;12.00;99.90
24468;DHT22;12634;50.852;5.676;2024-01-30T11:16:00;12.00;99.90
24468;DHT22;12634;50.852;5.676;2024-01-30T11:18:29;12.00;99.90
24468;DHT22;12634;50.852;5.676;2024-01-30T11:20:57;12.00;99.90
24468;DHT22;12634;50.852;5.676;2024-01-30T11:23:26;12.00;99.90
24468;DHT22;12634;50.852;5.676;2024-01-30T11:25:53;12.10;99.90
24468;DHT22;12634;50.852;5.676;2024-01-30T11:28:21;12.10;99.90
24468;DHT22;12634;50.852;5.676;2024-01-30T11:30:50;12.10;99.90
24468;DHT22;12634;50.852;5.676;2024-01-30T11:33:28;12.20;99.90
24468;DHT22;12634;50.852;5.676;2024-01-30T11:35:57;12.20;99.90
24468;DHT22;12634;50.852;5.676;2024-01-30T11:38:27;12.20;99.90
24468;DHT22;12634;50.852;5.676;2024-01-30T11:40:55;12.20;99.90
24468;DHT22;12634;50.852;5.676;2024-01-30T11:43:23;12.20;99.90
24468;DHT22;12634;50.852;5.676;2024-01-30T11:45:52;12.30;99.90
24468;DHT22;12634;50.852;5.676;2024-01-30T11:48:19;12.20;99.90
24468;DHT22;12634;50.852;5.676;2024-01-30T11:50:46;12.20;99.90
24468;DHT22;12634;50.852;5.676;2024-01-30T11:53:14;12.20;99.90
24468;DHT22;12634;50.852;5.676;2024-01-30T11:55:42;12.10;99.90
24468;DHT22;12634;50.852;5.676;2024-01-30T11:58:16;12.10;99.90
24468;DHT22;12634;50.852;5.676;2024-01-30T12:00:43;12.10;99.90
24468;DHT22;12634;50.852;5.676;2024-01-30T12:03:20;12.10;99.90
24468;DHT22;12634;50.852;5.676;2024-01-30T12:05:55;12.10;99.90
24468;DHT22;12634;50.852;5.676;2024-01-30T12:08:23;12.10;99.90
24468;DHT22;12634;50.852;5.676;2024-01-30T12:10:56;12.10;99.90
24468;DHT22;12634;50.852;5.676;2024-01-30T12:13:24;12.10;99.90
24468;DHT22;12634;50.852;5.676;2024-01-30T12:15:51;12.10;99.90
24468;DHT22;12634;50.852;5.676;2024-01-30T12:18:20;12.00;99.90
24468;DHT22;12634;50.852;5.676;2024-01-30T12:20:57;12.10;99.90
24468;DHT22;12634;50.852;5.676;2024-01-30T12:23:25;12.00;99.90
24468;DHT22;12634;50.852;5.676;2024-01-30T12:25:52;12.00;99.90
24468;DHT22;12634;50.852;5.676;2024-01-30T12:28:21;12.00;99.90
24468;DHT22;12634;50.852;5.676;2024-01-30T12:30:48;12.00;99.90
24468;DHT22;12634;50.852;5.676;2024-01-30T12:33:16;12.00;99.90
24468;DHT22;12634;50.852;5.676;2024-01-30T12:35:47;12.00;99.90
24468;DHT22;12634;50.852;5.676;2024-01-30T12:38:15;11.90;99.90
24468;DHT22;12634;50.852;5.676;2024-01-30T12:40:42;12.00;99.90
24468;DHT22;12634;50.852;5.676;2024-01-30T12:43:10;11.90;99.90
24468;DHT22;12634;50.852;5.676;2024-01-30T12:45:38;11.90;99.90
24468;DHT22;12634;50.852;5.676;2024-01-30T12:48:06;11.90;99.90
24468;DHT22;12634;50.852;5.676;2024-01-30T12:50:33;11.90;99.90
24468;DHT22;12634;50.852;5.676;2024-01-30T12:53:02;11.90;99.90
24468;DHT22;12634;50.852;5.676;2024-01-30T12:55:29;11.80;99.90
24468;DHT22;12634;50.852;5.676;2024-01-30T12:57:56;11.80;99.90
24468;DHT22;12634;50.852;5.676;2024-01-30T13:00:23;11.80;99.90
24468;DHT22;12634;50.852;5.676;2024-01-30T13:02:51;11.80;99.90
24468;DHT22;12634;50.852;5.676;2024-01-30T13:05:18;11.70;99.90
24468;DHT22;12634;50.852;5.676;2024-01-30T13:07:45;11.70;99.90
24468;DHT22;12634;50.852;5.676;2024-01-30T13:10:14;11.70;99.90
24468;DHT22;12634;50.852;5.676;2024-01-30T13:12:42;11.70;99.90
24468;DHT22;12634;50.852;5.676;2024-01-30T13:15:09;11.70;99.90
24468;DHT22;12634;50.852;5.676;2024-01-30T13:17:37;11.70;99.90
24468;DHT22;12634;50.852;5.676;2024-01-30T13:20:05;11.70;99.90
24468;DHT22;12634;50.852;5.676;2024-01-30T13:22:34;11.60;99.90
24468;DHT22;12634;50.852;5.676;2024-01-30T13:25:01;11.60;99.90
24468;DHT22;12634;50.852;5.676;2024-01-30T13:27:29;11.60;99.90
24468;DHT22;12634;50.852;5.676;2024-01-30T13:29:57;11.50;99.90
24468;DHT22;12634;50.852;5.676;2024-01-30T13:32:24;11.50;99.90
24468;DHT22;12634;50.852;5.676;2024-01-30T13:34:51;11.50;99.90
24468;DHT22;12634;50.852;5.676;2024-01-30T13:37:18;11.50;99.90
24468;DHT22;12634;50.852;5.676;2024-01-30T13:39:46;11.40;99.90
24468;DHT22;12634;50.852;5.676;2024-01-30T13:42:13;11.40;99.90
24468;DHT22;12634;50.852;5.676;2024-01-30T13:44:41;11.30;99.90
24468;DHT22;12634;50.852;5.676;2024-01-30T13:47:09;11.30;99.90
24468;DHT22;12634;50.852;5.676;2024-01-30T13:49:37;11.30;99.90
24468;DHT22;12634;50.852;5.676;2024-01-30T13:52:05;11.30;99.90
24468;DHT22;12634;50.852;5.676;2024-01-30T13:54:32;11.30;99.90
24468;DHT22;12634;50.852;5.676;2024-01-30T13:56:59;11.20;99.90
24468;DHT22;12634;50.852;5.676;2024-01-30T13:59:26;11.20;99.90
24468;DHT22;12634;50.852;5.676;2024-01-30T14:01:55;11.10;99.90
24468;DHT22;12634;50.852;5.676;2024-01-30T14:04:22;11.00;99.90
24468;DHT22;12634;50.852;5.676;2024-01-30T14:06:49;10.90;99.90
24468;DHT22;12634;50.852;5.676;2024-01-30T14:09:16;10.90;99.90
24468;DHT22;12634;50.852;5.676;2024-01-30T14:11:44;10.90;99.90
24468;DHT22;12634;50.852;5.676;2024-01-30T14:14:11;10.90;99.90
24468;DHT22;12634;50.852;5.676;2024-01-30T14:16:38;10.90;99.90
24468;DHT22;12634;50.852;5.676;2024-01-30T14:19:07;10.90;99.90
24468;DHT22;12634;50.852;5.676;2024-01-30T14:21:34;10.90;99.90
24468;DHT22;12634;50.852;5.676;2024-01-30T14:24:03;10.90;99.90
24468;DHT22;12634;50.852;5.676;2024-01-30T14:26:31;10.90;99.90
24468;DHT22;12634;50.852;5.676;2024-01-30T14:28:58;10.90;99.90
24468;DHT22;12634;50.852;5.676;2024-01-30T14:31:25;10.90;99.90
24468;DHT22;12634;50.852;5.676;2024-01-30T14:33:52;10.90;99.90
24468;DHT22;12634;50.852;5.676;2024-01-30T14:36:22;10.90;99.90
24468;DHT22;12634;50.852;5.676;2024-01-30T14:38:53;10.90;99.90
24468;DHT22;12634;50.852;5.676;2024-01-30T14:41:20;10.80;99.90
24468;DHT22;12634;50.852;5.676;2024-01-30T14:43:48;10.80;99.90
24468;DHT22;12634;50.852;5.676;2024-01-30T14:46:15;10.80;99.90
24468;DHT22;12634;50.852;5.676;2024-01-30T14:48:42;10.80;99.90
24468;DHT22;12634;50.852;5.676;2024-01-30T14:51:10;10.80;99.90
24468;DHT22;12634;50.852;5.676;2024-01-30T14:53:38;10.80;99.90
24468;DHT22;12634;50.852;5.676;2024-01-30T14:56:06;10.80;99.90
24468;DHT22;12634;50.852;5.676;2024-01-30T14:58:34;10.80;99.90
24468;DHT22;12634;50.852;5.676;2024-01-30T15:01:01;10.80;99.90
24468;DHT22;12634;50.852;5.676;2024-01-30T15:03:29;10.80;99.90
24468;DHT22;12634;50.852;5.676;2024-01-30T15:05:56;10.70;99.90
24468;DHT22;12634;50.852;5.676;2024-01-30T15:08:24;10.70;99.90
24468;DHT22;12634;50.852;5.676;2024-01-30T15:10:52;10.60;99.90
24468;DHT22;12634;50.852;5.676;2024-01-30T15:13:19;10.60;99.90
24468;DHT22;12634;50.852;5.676;2024-01-30T15:15:47;10.60;99.90
24468;DHT22;12634;50.852;5.676;2024-01-30T15:18:14;10.60;99.90
24468;DHT22;12634;50.852;5.676;2024-01-30T15:20:41;10.60;99.90
24468;DHT22;12634;50.852;5.676;2024-01-30T15:23:08;10.60;99.90
24468;DHT22;12634;50.852;5.676;2024-01-30T15:25:35;10.50;99.90
24468;DHT22;12634;50.852;5.676;2024-01-30T15:28:04;10.50;99.90
24468;DHT22;12634;50.852;5.676;2024-01-30T15:30:31;10.50;99.90
24468;DHT22;12634;50.852;5.676;2024-01-30T15:32:59;10.50;99.90
24468;DHT22;12634;50.852;5.676;2024-01-30T15:35:26;10.40;99.90